Time;durP1;ratioP1;P1;durP2;ratioP2;P2;SDS_P1;SDS_P2;PMS_P1;PMS_P2;Temp;Humidity;BMP_temperature;BMP_pressure;BME280_temperature;BME280_humidity;BME280_pressure;Samples;Min_cycle;Max_cycle;Signal;HPM_P1;HPM_P2
2023/08/30 00:01:47;;;;;;;2.05;1.10;;;21.30;74.10;;;;;;5091432;28;20127;-63
2023/08/30 00:04:13;;;;;;;3.10;0.90;;;21.30;74.10;;;;;;5092818;28;20032;-63
2023/08/30 00:06:39;;;;;;;2.63;1.02;;;21.30;74.10;;;;;;5097978;28;20473;-63
2023/08/30 00:09:04;;;;;;;1.58;0.90;;;21.30;74.00;;;;;;5111458;28;20044;-63
2023/08/30 00:11:30;;;;;;;3.15;1.13;;;21.30;74.60;;;;;;5113160;28;20471;-63
2023/08/30 00:14:03;;;;;;;2.28;0.88;;;21.30;74.00;;;;;;5112835;28;20067;-63
2023/08/30 00:16:28;;;;;;;2.03;0.90;;;21.30;74.00;;;;;;5112380;28;20048;-63
2023/08/30 00:18:54;;;;;;;1.40;0.93;;;21.30;74.00;;;;;;5111232;28;20067;-63
2023/08/30 00:21:20;;;;;;;2.05;0.88;;;21.30;74.00;;;;;;5113017;28;20044;-63
2023/08/30 00:23:46;;;;;;;2.53;0.88;;;21.30;74.00;;;;;;5112104;28;20046;-63
2023/08/30 00:26:11;;;;;;;3.28;1.02;;;21.20;74.00;;;;;;5112838;28;20394;-63
2023/08/30 00:28:37;;;;;;;2.65;1.00;;;21.30;74.00;;;;;;5111010;28;20042;-63
2023/08/30 00:31:02;;;;;;;2.38;0.85;;;21.20;73.90;;;;;;5111813;28;20047;-63
2023/08/30 00:33:28;;;;;;;1.65;0.90;;;21.20;73.90;;;;;;5111212;28;20504;-63
2023/08/30 00:35:58;;;;;;;2.28;0.98;;;21.20;73.90;;;;;;5110814;28;20120;-63
2023/08/30 00:38:23;;;;;;;3.40;1.20;;;21.20;73.90;;;;;;5112176;28;20047;-63
2023/08/30 00:40:49;;;;;;;1.80;0.90;;;21.20;73.90;;;;;;5112507;28;20112;-63
2023/08/30 00:43:18;;;;;;;2.10;1.02;;;21.20;73.90;;;;;;5114115;28;20126;-63
2023/08/30 00:45:43;;;;;;;2.20;1.08;;;21.20;73.90;;;;;;5116326;27;20039;-63
2023/08/30 00:48:09;;;;;;;3.70;1.20;;;21.20;73.90;;;;;;5115157;28;20545;-62
2023/08/30 00:50:34;;;;;;;2.63;1.00;;;21.20;73.80;;;;;;5114317;28;20040;-63
2023/08/30 00:53:05;;;;;;;2.17;0.95;;;21.20;73.90;;;;;;5116320;28;20047;-63
2023/08/30 00:55:37;;;;;;;1.92;0.80;;;21.20;73.90;;;;;;5116441;28;20445;-63
2023/08/30 00:58:02;;;;;;;2.10;0.90;;;21.20;73.90;;;;;;5102786;28;20051;-62
2023/08/30 01:00:29;;;;;;;2.05;0.80;;;21.20;73.80;;;;;;5077770;28;20036;-63
2023/08/30 01:02:56;;;;;;;2.97;0.90;;;21.20;73.80;;;;;;5094132;28;20062;-63
2023/08/30 01:05:22;;;;;;;2.85;1.00;;;21.20;73.80;;;;;;5093889;28;20459;-63
2023/08/30 01:07:48;;;;;;;2.30;0.90;;;21.20;73.80;;;;;;5114186;28;20039;-63
2023/08/30 01:10:14;;;;;;;2.10;1.05;;;21.20;73.80;;;;;;5114951;28;20044;-63
2023/08/30 01:12:48;;;;;;;2.95;1.00;;;21.20;73.80;;;;;;5115359;28;20050;-63
2023/08/30 01:15:20;;;;;;;1.60;0.93;;;21.20;73.70;;;;;;5114437;28;20051;-64
2023/08/30 01:17:50;;;;;;;2.20;1.10;;;21.20;73.70;;;;;;5094246;28;20075;-63
2023/08/30 01:20:22;;;;;;;1.38;0.80;;;21.20;73.70;;;;;;5094979;28;20101;-63
2023/08/30 01:23:09;;;;;;;2.38;1.02;;;21.20;73.70;;;;;;5094444;28;20040;-63
2023/08/30 01:25:54;;;;;;;2.38;1.00;;;21.10;73.60;;;;;;5094678;28;20036;-63
2023/08/30 01:28:22;;;;;;;1.67;0.90;;;21.10;73.60;;;;;;5094683;28;20048;-63
2023/08/30 01:30:48;;;;;;;2.17;0.90;;;21.10;73.70;;;;;;5094085;28;20532;-63
2023/08/30 01:33:14;;;;;;;1.60;0.90;;;21.10;73.60;;;;;;5093636;28;20130;-63
2023/08/30 01:35:41;;;;;;;1.92;0.90;;;21.10;73.60;;;;;;5077115;28;20210;-63
2023/08/30 01:38:06;;;;;;;2.10;1.10;;;21.10;73.60;;;;;;5077264;28;20078;-63
2023/08/30 01:40:42;;;;;;;2.50;0.98;;;21.10;73.60;;;;;;5093335;28;20511;-64
2023/08/30 01:43:07;;;;;;;2.17;0.80;;;21.10;73.60;;;;;;5093839;28;20071;-63
2023/08/30 01:45:34;;;;;;;2.00;0.95;;;21.10;73.60;;;;;;5093951;28;20086;-63
2023/08/30 01:48:00;;;;;;;1.48;0.90;;;21.10;73.60;;;;;;5056286;28;20260;-63
2023/08/30 01:50:26;;;;;;;1.55;1.00;;;21.00;73.50;;;;;;5056449;28;20087;-63
2023/08/30 01:52:51;;;;;;;2.20;1.00;;;21.10;73.60;;;;;;5056338;28;20103;-63
2023/08/30 01:55:17;;;;;;;2.33;1.10;;;21.10;73.50;;;;;;5054565;28;20044;-63
2023/08/30 01:57:42;;;;;;;2.83;1.30;;;21.10;73.50;;;;;;5073280;28;20041;-63
2023/08/30 02:00:08;;;;;;;1.65;0.90;;;21.10;73.50;;;;;;5073374;28;20480;-62
2023/08/30 02:02:34;;;;;;;1.85;1.10;;;21.10;73.60;;;;;;5072371;28;20495;-63
2023/08/30 02:05:00;;;;;;;2.38;0.85;;;21.10;73.50;;;;;;5074011;28;20040;-63
2023/08/30 02:07:32;;;;;;;2.10;1.17;;;21.10;73.50;;;;;;5072290;28;20032;-63
2023/08/30 02:10:00;;;;;;;1.77;1.10;;;21.10;73.50;;;;;;5055530;28;20404;-63
2023/08/30 02:12:30;;;;;;;2.67;1.05;;;21.10;73.50;;;;;;5073170;28;20441;-63
2023/08/30 02:14:55;;;;;;;2.28;1.02;;;21.10;73.50;;;;;;5055606;28;20059;-63
2023/08/30 02:17:21;;;;;;;2.17;1.20;;;21.00;73.50;;;;;;5056317;28;20037;-63
2023/08/30 02:19:46;;;;;;;3.33;1.20;;;21.00;73.50;;;;;;5072421;28;20076;-62
2023/08/30 02:22:12;;;;;;;2.17;1.35;;;21.00;73.50;;;;;;5071975;28;20032;-62
2023/08/30 02:24:38;;;;;;;2.00;0.95;;;21.00;74.10;;;;;;5072746;28;20048;-63
2023/08/30 02:27:04;;;;;;;2.00;0.80;;;21.00;73.50;;;;;;5074317;28;20032;-63
2023/08/30 02:29:29;;;;;;;2.10;1.13;;;21.00;73.40;;;;;;5072434;28;20098;-63
2023/08/30 02:31:55;;;;;;;1.95;1.08;;;21.00;73.40;;;;;;5073896;28;20047;-63
2023/08/30 02:34:20;;;;;;;3.30;1.27;;;21.00;73.40;;;;;;5073518;28;20047;-63
2023/08/30 02:36:46;;;;;;;2.63;1.17;;;21.00;73.50;;;;;;5072598;28;20103;-63
2023/08/30 02:39:13;;;;;;;1.50;1.05;;;21.00;73.50;;;;;;5073614;28;20113;-63
2023/08/30 02:41:40;;;;;;;2.10;1.02;;;21.00;73.40;;;;;;5072699;28;20094;-63
2023/08/30 02:44:07;;;;;;;2.03;1.10;;;21.00;73.40;;;;;;5071680;28;20045;-63
2023/08/30 02:46:33;;;;;;;1.75;1.25;;;21.00;73.40;;;;;;5073626;28;20114;-63
2023/08/30 02:48:58;;;;;;;2.10;1.02;;;21.00;73.40;;;;;;5073487;28;20492;-62
2023/08/30 02:51:24;;;;;;;2.20;1.08;;;21.00;73.40;;;;;;5078993;28;20607;-63
2023/08/30 02:53:50;;;;;;;2.03;1.10;;;21.00;73.40;;;;;;5113899;28;20130;-63
2023/08/30 02:56:15;;;;;;;1.75;1.17;;;21.00;73.40;;;;;;5112939;28;20040;-63
2023/08/30 02:58:41;;;;;;;2.28;1.10;;;20.90;73.30;;;;;;5113192;28;20047;-65
2023/08/30 03:01:07;;;;;;;1.33;0.90;;;20.90;73.30;;;;;;5112693;28;20180;-63
2023/08/30 03:03:32;;;;;;;1.85;1.00;;;20.90;73.30;;;;;;5112682;28;20039;-63
2023/08/30 03:05:58;;;;;;;2.88;1.40;;;20.90;73.30;;;;;;5111280;28;20056;-62
2023/08/30 03:08:23;;;;;;;1.77;1.10;;;20.90;73.30;;;;;;5129809;27;20047;-63
2023/08/30 03:10:49;;;;;;;2.55;1.10;;;20.90;73.30;;;;;;5113604;28;20039;-63
2023/08/30 03:13:14;;;;;;;2.30;1.10;;;20.90;73.30;;;;;;5113122;28;20044;-62
2023/08/30 03:15:40;;;;;;;1.70;0.95;;;20.90;73.30;;;;;;5112571;28;20058;-63
2023/08/30 03:18:06;;;;;;;1.75;1.10;;;20.90;73.20;;;;;;5111722;28;20524;-63
2023/08/30 03:20:32;;;;;;;4.03;1.00;;;20.90;73.20;;;;;;5113681;28;20073;-62
2023/08/30 03:22:58;;;;;;;2.08;1.20;;;20.90;73.20;;;;;;5113469;28;20046;-63
2023/08/30 03:25:23;;;;;;;1.55;0.98;;;20.90;73.20;;;;;;5113003;28;20047;-63
2023/08/30 03:27:49;;;;;;;3.13;1.40;;;20.90;73.20;;;;;;5113069;28;20554;-62
2023/08/30 03:30:15;;;;;;;2.35;1.15;;;20.90;73.20;;;;;;5113584;28;20119;-62
2023/08/30 03:32:40;;;;;;;2.28;1.08;;;20.90;73.20;;;;;;5112306;28;20047;-63
2023/08/30 03:35:06;;;;;;;2.00;1.23;;;20.90;73.20;;;;;;5113415;28;20036;-63
2023/08/30 03:37:32;;;;;;;1.90;1.30;;;20.90;73.20;;;;;;5113308;28;20411;-62
2023/08/30 03:39:57;;;;;;;2.42;1.17;;;20.90;73.20;;;;;;5112579;28;20036;-62
2023/08/30 03:42:23;;;;;;;1.77;1.00;;;20.90;73.20;;;;;;5113483;28;20040;-63
2023/08/30 03:44:48;;;;;;;1.23;0.82;;;20.90;73.20;;;;;;5113228;28;20032;-63
2023/08/30 03:47:14;;;;;;;1.25;0.80;;;20.90;73.10;;;;;;5112309;28;20048;-63
2023/08/30 03:49:40;;;;;;;2.65;1.40;;;20.90;73.20;;;;;;5113214;28;20047;-63
2023/08/30 03:52:05;;;;;;;1.98;1.10;;;20.90;73.20;;;;;;5113470;28;20039;-63
2023/08/30 03:54:31;;;;;;;1.50;1.00;;;20.80;73.10;;;;;;5112166;28;20050;-63
2023/08/30 03:56:57;;;;;;;3.08;1.17;;;20.90;73.20;;;;;;5113002;28;20078;-62
2023/08/30 03:59:25;;;;;;;1.92;1.10;;;20.80;73.10;;;;;;5112675;28;20075;-62
2023/08/30 04:01:50;;;;;;;2.15;1.23;;;20.80;73.10;;;;;;5089880;28;20127;-62
2023/08/30 04:04:16;;;;;;;1.70;1.10;;;20.80;73.10;;;;;;5092073;28;20119;-63
2023/08/30 04:06:42;;;;;;;1.88;1.00;;;20.80;73.00;;;;;;5091752;28;20047;-62
2023/08/30 04:09:08;;;;;;;2.45;1.38;;;20.80;73.00;;;;;;5090145;28;20047;-63
2023/08/30 04:11:33;;;;;;;4.03;1.40;;;20.80;73.00;;;;;;5092378;28;20515;-63
2023/08/30 04:13:59;;;;;;;2.83;1.38;;;20.80;73.00;;;;;;5092668;28;20216;-63
2023/08/30 04:16:24;;;;;;;3.08;1.48;;;20.80;73.00;;;;;;5092163;28;20040;-63
2023/08/30 04:18:50;;;;;;;1.60;1.02;;;20.80;73.00;;;;;;5094772;28;20552;-63
2023/08/30 04:21:16;;;;;;;2.63;1.40;;;20.80;73.00;;;;;;5096765;28;20036;-62
2023/08/30 04:23:41;;;;;;;1.60;1.05;;;20.80;73.00;;;;;;5094659;28;20071;-63
2023/08/30 04:26:07;;;;;;;2.35;1.33;;;20.80;73.00;;;;;;5095374;28;20497;-62
2023/08/30 04:28:32;;;;;;;2.38;1.27;;;20.80;73.00;;;;;;5094669;28;20078;-63
2023/08/30 04:30:58;;;;;;;1.92;1.13;;;20.80;73.00;;;;;;5096071;28;20506;-63
2023/08/30 04:33:24;;;;;;;2.20;1.20;;;20.80;73.00;;;;;;5095526;28;20063;-63
2023/08/30 04:35:53;;;;;;;2.85;1.23;;;20.80;73.00;;;;;;5095036;28;20064;-63
2023/08/30 04:38:19;;;;;;;1.75;0.90;;;20.80;73.60;;;;;;5095047;28;20083;-63
2023/08/30 04:40:45;;;;;;;2.38;1.38;;;20.80;73.00;;;;;;5094801;28;20040;-63
2023/08/30 04:43:11;;;;;;;1.98;1.10;;;20.80;73.00;;;;;;5095551;28;20044;-63
2023/08/30 04:45:36;;;;;;;1.88;1.10;;;20.80;73.00;;;;;;5095086;28;20040;-62
2023/08/30 04:48:02;;;;;;;1.63;1.10;;;20.80;73.00;;;;;;5096378;28;20044;-63
2023/08/30 04:50:31;;;;;;;2.72;1.52;;;20.80;73.00;;;;;;5097030;28;20040;-62
2023/08/30 04:52:56;;;;;;;1.98;1.15;;;20.80;73.00;;;;;;5112377;28;20407;-62
2023/08/30 04:55:24;;;;;;;2.20;1.20;;;20.80;72.90;;;;;;5116380;28;20044;-63
2023/08/30 04:57:50;;;;;;;2.10;1.20;;;20.80;72.90;;;;;;5114027;28;20048;-63
2023/08/30 05:00:20;;;;;;;2.20;1.30;;;20.70;72.90;;;;;;5116000;27;20062;-63
2023/08/30 05:02:46;;;;;;;1.65;1.00;;;20.70;72.90;;;;;;5116074;28;20043;-62
2023/08/30 05:05:12;;;;;;;1.83;1.17;;;20.70;72.90;;;;;;5115695;28;20035;-63
2023/08/30 05:07:38;;;;;;;2.05;1.20;;;20.70;72.90;;;;;;5100490;28;20097;-63
2023/08/30 05:10:04;;;;;;;2.80;1.63;;;20.70;72.90;;;;;;5095769;28;20032;-63
2023/08/30 05:12:30;;;;;;;2.78;1.13;;;20.70;72.80;;;;;;5095169;28;20048;-63
2023/08/30 05:14:55;;;;;;;2.20;1.15;;;20.70;72.90;;;;;;5095378;28;20036;-63
2023/08/30 05:17:21;;;;;;;1.77;1.13;;;20.70;72.90;;;;;;5095825;28;20048;-63
2023/08/30 05:19:46;;;;;;;1.45;1.00;;;20.70;72.80;;;;;;5093694;28;20052;-63
2023/08/30 05:22:12;;;;;;;1.83;0.95;;;20.70;73.50;;;;;;5094394;28;20040;-63
2023/08/30 05:24:38;;;;;;;2.42;1.27;;;20.70;72.80;;;;;;5094179;28;20036;-63
2023/08/30 05:27:04;;;;;;;2.08;1.30;;;20.70;72.90;;;;;;5095430;28;20044;-63
2023/08/30 05:29:29;;;;;;;3.05;1.20;;;20.70;72.80;;;;;;5094952;28;20043;-63
2023/08/30 05:31:55;;;;;;;2.47;1.15;;;20.70;72.80;;;;;;5094119;28;20866;-63
2023/08/30 05:34:20;;;;;;;1.83;1.13;;;20.70;72.80;;;;;;5095633;28;20039;-63
2023/08/30 05:36:46;;;;;;;2.22;1.08;;;20.70;72.80;;;;;;5093554;28;20070;-62
2023/08/30 05:39:12;;;;;;;1.73;1.33;;;20.70;72.80;;;;;;5093277;28;20051;-63
2023/08/30 05:41:37;;;;;;;2.03;0.98;;;20.70;72.80;;;;;;5093378;28;20089;-63
2023/08/30 05:44:03;;;;;;;2.08;1.35;;;20.70;72.80;;;;;;5095309;28;20052;-62
2023/08/30 05:46:29;;;;;;;1.85;1.20;;;20.70;72.80;;;;;;5093870;28;20037;-63
2023/08/30 05:48:55;;;;;;;2.30;1.38;;;20.70;72.80;;;;;;5094782;28;20556;-63
2023/08/30 05:51:20;;;;;;;2.47;1.08;;;20.70;72.80;;;;;;5093608;28;20044;-63
2023/08/30 05:53:46;;;;;;;1.60;1.08;;;20.70;72.80;;;;;;5092672;28;20048;-65
2023/08/30 05:56:11;;;;;;;2.22;1.20;;;20.70;72.80;;;;;;5094981;28;20048;-62
2023/08/30 05:58:37;;;;;;;2.67;1.42;;;20.70;72.90;;;;;;5093974;28;20101;-62
2023/08/30 06:01:06;;;;;;;3.10;1.33;;;20.70;72.90;;;;;;5093756;28;20071;-62
2023/08/30 06:03:31;;;;;;;;;;;20.70;72.90;;;;;;5095347;28;20392;-63
2023/08/30 06:05:57;;;;;;;4.55;1.50;;;20.70;72.70;;;;;;5093146;28;20399;-63
2023/08/30 06:08:23;;;;;;;4.72;1.40;;;20.70;72.90;;;;;;5094092;28;20074;-62
2023/08/30 06:10:48;;;;;;;7.97;1.50;;;20.70;73.00;;;;;;5093945;28;20044;-63
2023/08/30 06:13:14;;;;;;;2.65;1.40;;;20.70;73.20;;;;;;5094841;28;20416;-64
2023/08/30 06:15:39;;;;;;;3.40;1.27;;;20.70;73.20;;;;;;5092186;28;20078;-63
2023/08/30 06:18:05;;;;;;;3.17;1.35;;;20.70;73.30;;;;;;5094549;28;20496;-62
2023/08/30 06:20:31;;;;;;;2.00;1.20;;;20.70;73.30;;;;;;5094206;28;20043;-63
2023/08/30 06:22:58;;;;;;;6.40;1.45;;;20.70;73.30;;;;;;5091197;28;20040;-62
2023/08/30 06:25:23;;;;;;;7.65;2.55;;;20.70;73.20;;;;;;5092361;28;20040;-62
2023/08/30 06:28:01;;;;;;;3.75;1.48;;;20.80;73.40;;;;;;5093115;28;20050;-63
2023/08/30 06:30:27;;;;;;;4.85;1.60;;;20.80;73.50;;;;;;5094603;28;20051;-63
2023/08/30 06:32:52;;;;;;;3.45;1.75;;;20.80;73.50;;;;;;5093602;28;20036;-62
2023/08/30 06:35:18;;;;;;;4.70;2.15;;;20.80;73.60;;;;;;5093434;28;20069;-62
2023/08/30 06:37:44;;;;;;;3.40;1.70;;;20.80;73.60;;;;;;5091510;28;20037;-63
2023/08/30 06:40:10;;;;;;;4.57;1.70;;;20.80;73.60;;;;;;5093417;28;20044;-62
2023/08/30 06:42:35;;;;;;;3.40;1.48;;;20.80;73.60;;;;;;5093262;28;20051;-62
2023/08/30 06:45:02;;;;;;;3.97;1.65;;;20.80;73.60;;;;;;5092954;28;20040;-62
2023/08/30 06:47:27;;;;;;;4.60;1.65;;;20.80;73.60;;;;;;5093927;28;20189;-62
2023/08/30 06:49:53;;;;;;;3.65;1.80;;;20.80;73.60;;;;;;5092990;28;20516;-62
2023/08/30 06:52:18;;;;;;;3.15;1.50;;;20.80;73.60;;;;;;5093457;28;20043;-62
2023/08/30 06:54:44;;;;;;;5.53;1.92;;;20.80;73.60;;;;;;5093511;28;20527;-62
2023/08/30 06:57:10;;;;;;;5.78;1.90;;;20.80;73.60;;;;;;5093100;28;20044;-62
2023/08/30 06:59:35;;;;;;;2.65;1.60;;;20.80;73.60;;;;;;5091939;28;20048;-63
2023/08/30 07:02:01;;;;;;;4.25;1.63;;;20.80;73.60;;;;;;5093722;28;20046;-62
2023/08/30 07:04:28;;;;;;;3.95;1.80;;;20.80;73.60;;;;;;5092849;28;20040;-62
2023/08/30 07:06:53;;;;;;;2.60;1.40;;;20.80;73.60;;;;;;5091597;28;20044;-61
2023/08/30 07:09:19;;;;;;;3.20;1.48;;;20.80;73.60;;;;;;5087448;28;20048;-62
2023/08/30 07:11:45;;;;;;;4.88;1.95;;;20.80;73.50;;;;;;5072337;28;20053;-61
2023/08/30 07:14:12;;;;;;;2.63;1.38;;;20.90;73.50;;;;;;5077104;28;20446;-61
2023/08/30 07:16:38;;;;;;;4.68;1.80;;;20.80;73.40;;;;;;5093018;28;20048;-62
2023/08/30 07:19:03;;;;;;;5.30;1.75;;;20.80;73.40;;;;;;5092158;28;20056;-61
2023/08/30 07:21:29;;;;;;;2.88;1.70;;;20.80;73.30;;;;;;5093221;28;20047;-61
2023/08/30 07:23:54;;;;;;;3.55;1.40;;;20.90;73.30;;;;;;5092626;28;20047;-61
2023/08/30 07:26:20;;;;;;;4.15;1.95;;;20.90;73.40;;;;;;5092719;28;20040;-62
2023/08/30 07:28:46;;;;;;;3.42;1.58;;;20.90;73.30;;;;;;5092784;28;20116;-61
2023/08/30 07:31:15;;;;;;;4.60;2.20;;;20.90;73.30;;;;;;5092555;28;20086;-62
2023/08/30 07:33:40;;;;;;;6.28;1.95;;;20.90;73.20;;;;;;5091506;28;20101;-61
2023/08/30 07:36:06;;;;;;;6.13;2.45;;;20.90;73.30;;;;;;5092727;28;20044;-62
2023/08/30 07:38:32;;;;;;;4.78;2.17;;;20.90;73.40;;;;;;5090792;28;20048;-63
2023/08/30 07:40:57;;;;;;;5.82;2.25;;;20.90;73.40;;;;;;5093054;28;20048;-63
2023/08/30 07:43:23;;;;;;;6.75;2.53;;;20.90;73.40;;;;;;5093187;28;20047;-63
2023/08/30 07:45:49;;;;;;;6.25;2.53;;;20.90;73.40;;;;;;5092096;28;20368;-63
2023/08/30 07:48:14;;;;;;;7.05;2.90;;;20.90;73.40;;;;;;5091779;28;20036;-62
2023/08/30 07:50:40;;;;;;;7.32;2.63;;;20.90;73.30;;;;;;5092595;28;20044;-62
2023/08/30 07:53:06;;;;;;;5.57;2.38;;;20.90;73.30;;;;;;5091556;28;20059;-62
2023/08/30 07:55:31;;;;;;;5.22;2.33;;;20.90;73.30;;;;;;5090941;28;20036;-62
2023/08/30 07:57:57;;;;;;;6.32;2.60;;;20.90;73.30;;;;;;5092509;28;20090;-63
2023/08/30 08:00:22;;;;;;;7.40;2.28;;;20.90;73.30;;;;;;5092222;28;20110;-62
2023/08/30 08:02:48;;;;;;;8.75;2.50;;;20.90;73.30;;;;;;5092125;28;20055;-62
2023/08/30 08:05:14;;;;;;;5.20;2.30;;;20.90;73.20;;;;;;5092733;28;20119;-62
2023/08/30 08:07:42;;;;;;;7.68;2.50;;;20.90;73.20;;;;;;5089839;28;20112;-60
2023/08/30 08:10:08;;;;;;;;;;;21.00;73.30;;;;;;5073028;28;20510;-62
2023/08/30 08:12:33;;;;;;;6.60;2.28;;;21.00;73.20;;;;;;5072166;28;19920;-63
2023/08/30 08:14:59;;;;;;;7.60;2.40;;;21.00;73.20;;;;;;5071806;28;20032;-63
2023/08/30 08:17:24;;;;;;;5.57;2.47;;;21.00;73.20;;;;;;5072514;28;20084;-62
2023/08/30 08:19:50;;;;;;;5.30;2.55;;;21.00;73.10;;;;;;5070767;28;20052;-63
2023/08/30 08:22:16;;;;;;;7.00;2.53;;;21.10;73.20;;;;;;5071525;28;20485;-62
2023/08/30 08:24:43;;;;;;;4.28;2.28;;;21.10;73.10;;;;;;5070864;28;20049;-62
2023/08/30 08:27:09;;;;;;;6.50;2.17;;;21.10;73.10;;;;;;5071260;28;20045;-62
2023/08/30 08:29:34;;;;;;;5.75;2.28;;;21.10;73.00;;;;;;5070363;28;20394;-63
2023/08/30 08:32:00;;;;;;;5.32;2.33;;;21.10;72.90;;;;;;5071230;28;20044;-63
2023/08/30 08:34:25;;;;;;;6.93;2.80;;;21.20;72.90;;;;;;5072621;28;20037;-62
2023/08/30 08:36:51;;;;;;;6.53;2.85;;;21.20;72.90;;;;;;5071110;28;20132;-62
2023/08/30 08:39:18;;;;;;;5.10;2.33;;;21.20;72.80;;;;;;5072446;28;20036;-62
2023/08/30 08:41:44;;;;;;;4.03;2.25;;;21.20;72.80;;;;;;5071522;28;20056;-63
2023/08/30 08:44:10;;;;;;;5.22;2.67;;;21.20;73.30;;;;;;5070989;28;20059;-62
2023/08/30 08:46:38;;;;;;;6.18;2.70;;;21.20;72.80;;;;;;5071778;28;20110;-62
2023/08/30 08:49:09;;;;;;;4.55;2.00;;;21.20;72.70;;;;;;5071232;28;20048;-63
2023/08/30 08:51:34;;;;;;;4.93;2.13;;;21.20;72.70;;;;;;5072133;28;20051;-62
2023/08/30 08:54:02;;;;;;;4.95;2.50;;;21.10;72.70;;;;;;5054230;28;20044;-62
2023/08/30 08:56:29;;;;;;;5.00;2.33;;;21.20;72.80;;;;;;5070820;28;20484;-62
2023/08/30 08:58:54;;;;;;;3.88;2.35;;;21.10;72.70;;;;;;5072052;28;20067;-63
2023/08/30 09:01:20;;;;;;;4.45;2.17;;;21.10;72.70;;;;;;5053939;28;20397;-63
2023/08/30 09:03:45;;;;;;;6.47;2.22;;;21.10;72.80;;;;;;5072724;28;20048;-62
2023/08/30 09:06:11;;;;;;;6.00;2.17;;;21.10;72.80;;;;;;5074329;28;20106;-62
2023/08/30 09:08:36;;;;;;;2.92;1.92;;;21.10;72.80;;;;;;5091409;28;20490;-62
2023/08/30 09:11:02;;;;;;;4.45;2.38;;;21.00;72.70;;;;;;5075237;28;20036;-62
2023/08/30 09:13:30;;;;;;;3.97;1.92;;;21.10;72.80;;;;;;5075837;28;20374;-62
2023/08/30 09:15:56;;;;;;;6.47;2.58;;;21.10;72.80;;;;;;5075411;28;20120;-62
2023/08/30 09:18:22;;;;;;;4.38;2.20;;;21.10;72.80;;;;;;5074882;28;20470;-63
2023/08/30 09:20:47;;;;;;;5.03;2.53;;;21.00;72.80;;;;;;5075188;28;20052;-62
2023/08/30 09:23:24;;;;;;;4.65;2.20;;;21.00;72.80;;;;;;5075711;28;20040;-62
2023/08/30 09:25:54;;;;;;;5.88;2.47;;;21.00;72.80;;;;;;5074409;28;20055;-62
2023/08/30 09:28:20;;;;;;;4.40;2.38;;;21.00;72.80;;;;;;5075534;28;20045;-62
2023/08/30 09:30:50;;;;;;;4.38;2.25;;;21.00;72.90;;;;;;5090252;28;20051;-63
2023/08/30 09:33:16;;;;;;;6.25;2.25;;;21.00;72.90;;;;;;5075033;28;20037;-62
2023/08/30 09:35:45;;;;;;;3.85;1.83;;;21.00;72.90;;;;;;5074944;28;20519;-63
2023/08/30 09:38:17;;;;;;;4.00;2.00;;;20.90;72.90;;;;;;5074560;28;20052;-62
2023/08/30 09:40:43;;;;;;;4.28;2.17;;;21.00;72.90;;;;;;5074914;28;20468;-62
2023/08/30 09:43:09;;;;;;;4.35;1.83;;;20.90;72.90;;;;;;5075396;28;20169;-62
2023/08/30 09:45:34;;;;;;;4.93;2.60;;;20.90;72.90;;;;;;5073852;28;20037;-62
2023/08/30 09:48:01;;;;;;;4.18;2.30;;;20.90;72.90;;;;;;5090754;28;20068;-62
2023/08/30 09:50:26;;;;;;;5.50;2.58;;;20.90;72.90;;;;;;5090214;28;20396;-62
2023/08/30 09:52:52;;;;;;;3.95;2.08;;;20.90;72.90;;;;;;5072734;28;20053;-62
2023/08/30 09:55:18;;;;;;;4.03;2.25;;;20.90;73.00;;;;;;5090569;28;20044;-63
2023/08/30 09:57:44;;;;;;;4.85;2.35;;;20.90;72.90;;;;;;5074383;28;20037;-62
2023/08/30 10:00:13;;;;;;;5.00;2.63;;;20.90;72.90;;;;;;5089201;28;20404;-62
2023/08/30 10:02:42;;;;;;;4.68;2.17;;;20.90;72.90;;;;;;5074620;28;20036;-62
2023/08/30 10:05:08;;;;;;;4.05;2.33;;;20.90;72.90;;;;;;5074715;28;20048;-62
2023/08/30 10:07:38;;;;;;;6.38;2.38;;;20.90;73.00;;;;;;5073437;28;20033;-62
2023/08/30 10:10:04;;;;;;;4.30;2.45;;;20.90;73.00;;;;;;5073701;28;20055;-62
2023/08/30 10:12:32;;;;;;;4.32;2.20;;;20.90;73.00;;;;;;5074806;28;20040;-62
2023/08/30 10:14:57;;;;;;;4.45;2.22;;;20.90;73.60;;;;;;5072502;28;20044;-62
2023/08/30 10:17:23;;;;;;;4.32;1.98;;;20.80;72.90;;;;;;5073879;28;20039;-62
2023/08/30 10:19:48;;;;;;;5.63;2.60;;;20.90;72.90;;;;;;5104932;28;20097;-62
2023/08/30 10:22:17;;;;;;;5.88;2.92;;;20.80;72.90;;;;;;5075677;28;20047;-62
2023/08/30 10:24:44;;;;;;;;;;;20.90;72.80;;;;;;5093242;28;20519;-61
2023/08/30 10:27:10;;;;;;;8.63;4.18;;;20.80;72.60;;;;;;5092748;28;19926;-61
2023/08/30 10:29:36;;;;;;;7.50;3.97;;;20.80;72.60;;;;;;5075625;28;20390;-62
2023/08/30 10:32:05;;;;;;;6.03;3.80;;;20.80;72.40;;;;;;5084184;28;20053;-62
2023/08/30 10:34:37;;;;;;;7.82;3.70;;;20.90;72.20;;;;;;5073282;28;20044;-61
2023/08/30 10:37:06;;;;;;;6.97;3.80;;;20.90;71.90;;;;;;5073708;28;20103;-63
2023/08/30 10:39:39;;;;;;;5.82;3.35;;;20.90;71.80;;;;;;5074023;28;20102;-62
2023/08/30 10:42:12;;;;;;;7.93;3.67;;;20.80;71.70;;;;;;5073327;28;20052;-62
2023/08/30 10:44:48;;;;;;;7.75;3.15;;;20.90;71.80;;;;;;5089854;28;20493;-61
2023/08/30 10:47:23;;;;;;;5.70;3.10;;;20.90;71.80;;;;;;5093705;28;20055;-62
2023/08/30 10:49:49;;;;;;;7.07;3.42;;;20.90;71.90;;;;;;5091477;28;20055;-61
2023/08/30 10:52:15;;;;;;;5.78;3.05;;;20.90;71.90;;;;;;5092685;28;20044;-61
2023/08/30 10:54:40;;;;;;;8.40;3.58;;;20.90;72.00;;;;;;5093672;28;20043;-61
2023/08/30 10:57:15;;;;;;;7.18;3.05;;;20.90;72.00;;;;;;5092208;28;20036;-61
2023/08/30 11:00:09;;;;;;;4.75;3.10;;;20.90;72.10;;;;;;5092594;28;20090;-61
2023/08/30 11:02:35;;;;;;;6.60;2.63;;;20.90;72.20;;;;;;5106001;28;20128;-61
2023/08/30 11:05:00;;;;;;;7.03;3.03;;;20.90;72.30;;;;;;5112885;28;20547;-61
2023/08/30 11:07:26;;;;;;;5.53;3.17;;;20.90;72.30;;;;;;5114184;28;20036;-61
2023/08/30 11:09:55;;;;;;;5.75;2.88;;;20.90;72.40;;;;;;5111631;28;20057;-61
2023/08/30 11:12:25;;;;;;;4.30;2.50;;;20.90;72.40;;;;;;5114279;28;20044;-61
2023/08/30 11:14:51;;;;;;;6.35;2.67;;;20.90;72.50;;;;;;5113779;28;20535;-61
2023/08/30 11:17:17;;;;;;;7.13;2.80;;;20.90;72.40;;;;;;5112916;28;20035;-61
2023/08/30 11:19:43;;;;;;;5.07;2.83;;;20.90;72.50;;;;;;5112045;28;20039;-61
2023/08/30 11:22:08;;;;;;;5.15;2.45;;;20.90;72.50;;;;;;5098467;28;20040;-61
2023/08/30 11:24:34;;;;;;;5.60;2.50;;;20.90;72.50;;;;;;5076720;28;20055;-61
2023/08/30 11:27:00;;;;;;;8.48;3.05;;;20.90;72.60;;;;;;5090362;28;20063;-61
2023/08/30 11:29:26;;;;;;;7.72;2.40;;;20.90;72.60;;;;;;5092854;28;20042;-61
2023/08/30 11:31:52;;;;;;;8.38;2.72;;;20.90;72.60;;;;;;5091959;28;20104;-61
2023/08/30 11:34:20;;;;;;;6.95;3.05;;;20.90;72.60;;;;;;5092742;28;20118;-61
2023/08/30 11:36:47;;;;;;;5.57;2.92;;;20.90;72.50;;;;;;5091403;28;20052;-62
2023/08/30 11:39:12;;;;;;;4.28;2.38;;;20.80;72.50;;;;;;5082423;28;20053;-62
2023/08/30 11:41:38;;;;;;;3.60;2.45;;;20.80;72.50;;;;;;5073140;28;20036;-62
2023/08/30 11:44:04;;;;;;;5.90;2.17;;;20.90;72.60;;;;;;5097288;28;20047;-62
2023/08/30 11:46:31;;;;;;;4.15;2.55;;;20.90;72.60;;;;;;5092455;28;20036;-62
2023/08/30 11:48:56;;;;;;;4.10;2.22;;;20.90;72.60;;;;;;5082852;28;20047;-62
2023/08/30 11:51:22;;;;;;;5.00;2.20;;;20.90;72.70;;;;;;5092696;28;20032;-62
2023/08/30 11:53:47;;;;;;;5.38;2.33;;;20.90;72.70;;;;;;5064148;28;20047;-62
2023/08/30 11:56:13;;;;;;;5.00;2.40;;;20.90;72.80;;;;;;5074336;28;20035;-62
2023/08/30 11:58:39;;;;;;;4.45;2.53;;;20.90;72.80;;;;;;5081281;28;20044;-62
2023/08/30 12:01:04;;;;;;;5.63;2.70;;;20.90;72.70;;;;;;5091868;28;20080;-63
2023/08/30 12:03:30;;;;;;;5.35;2.50;;;20.90;72.80;;;;;;5065977;28;20044;-62
2023/08/30 12:05:56;;;;;;;5.72;2.55;;;20.90;72.90;;;;;;5088546;28;20036;-62
2023/08/30 12:08:31;;;;;;;5.78;2.58;;;20.90;72.90;;;;;;5092592;28;20513;-62
2023/08/30 12:10:57;;;;;;;4.90;2.75;;;20.90;73.00;;;;;;5089405;28;20453;-63
2023/08/30 12:13:23;;;;;;;6.25;2.60;;;20.90;73.00;;;;;;5091397;28;20114;-63
2023/08/30 12:15:50;;;;;;;5.07;2.80;;;20.90;73.00;;;;;;5091901;28;20048;-62
2023/08/30 12:18:15;;;;;;;3.60;2.00;;;20.90;73.10;;;;;;5090672;28;20043;-62
2023/08/30 12:20:54;;;;;;;7.85;3.30;;;20.90;73.10;;;;;;5080585;28;20040;-62
2023/08/30 12:23:24;;;;;;;3.53;2.00;;;20.90;73.10;;;;;;5089844;28;20067;-62
2023/08/30 12:25:59;;;;;;;4.53;2.25;;;20.90;73.20;;;;;;5091771;28;20452;-63
2023/08/30 12:28:28;;;;;;;4.30;2.00;;;20.90;73.30;;;;;;5091742;28;20055;-62
2023/08/30 12:30:54;;;;;;;5.03;2.17;;;20.90;73.30;;;;;;5092392;28;20044;-62
2023/08/30 12:33:20;;;;;;;5.28;2.53;;;20.90;73.30;;;;;;5091226;28;20044;-62
2023/08/30 12:35:45;;;;;;;4.30;2.83;;;20.90;73.30;;;;;;5091209;28;20044;-62
2023/08/30 12:38:17;;;;;;;3.92;1.98;;;20.90;73.30;;;;;;5091989;28;20056;-62
2023/08/30 12:40:51;;;;;;;5.75;2.33;;;20.90;73.20;;;;;;5095011;28;20048;-61
2023/08/30 12:43:17;;;;;;;4.97;1.98;;;20.90;73.20;;;;;;5096677;28;20483;-62
2023/08/30 12:45:43;;;;;;;3.90;2.05;;;20.90;73.20;;;;;;5094710;28;20048;-71